Airfield :
LOGIN :

Register | Disclaimer

   EN    FR    IT 

 










Legend :    VFR   Marginal VFR   IFR   Intensive IFR   Very Intensive IFR
Visi :
Ceiling :
>= 8 km
>= 3000ft
5 to 8 km
1000 to 3000 ft
1500m to 5 km
500 to 1000 ft
800 to 1500m
200 to 500 ft
< 800m
< 200 ft
Symbols :   Thunderstorms  Fog  Heavy snow  Heavy precipitations  Wind > 20 kt
SIGMETs :     Misc.  Thunderstorms  Icing  Turbulence  Mountain Waves  Volcanic Ashes






- Airport Elevation : 0 ft


ENQA - Troll A Platform

CURRENT METAR :
  • 192020Z AUTO 17028KT 9999NDV BKN018/// BKN200/// 06/03 Q0999 W06/S5

EXPIRED METARs :
  • 191950Z AUTO 16029KT 9999NDV -SHRA BKN017/// 06/03 Q0999 W05/S5
  • 191920Z AUTO 17028KT 9999NDV FEW017/// 06/03 Q1000 W05/S5
  • 191850Z AUTO 16026KT 9999NDV SCT016/// BKN037/// 06/03 Q1000 W05/S5
  • 191820Z AUTO 16025KT 9999NDV BKN015/// 06/03 Q1000 W06/S5
  • 191750Z AUTO 16023KT 9999NDV FEW014/// SCT035/// 06/03 Q1000 W05/S5

TAF N/A



MET'MAP, your aeronautical weather chart ! - Copyright ORBIFLY December 2007 - Disclaimer

ORBIFLY MET'MAP TEAM :

Programming & Development : Alexandra Zaïnal
Concept & original design : Baudouin d'Aumeries
Assistance for programming : Marc-Olivier Méhu
Technical & hardware support : Manuel Goepfert

Contact : metmap@orbifly.com




SOURCES & CREDITS :

   NOAA